createdAt,value
2022-08-07T00:02:41.057Z,13.40
2022-08-07T00:06:20.524Z,13.40
2022-08-07T00:10:27.021Z,13.30
2022-08-07T00:14:11.458Z,13.20
2022-08-07T00:17:55.005Z,13.20
2022-08-07T00:21:57.480Z,13.10
2022-08-07T00:25:41.471Z,13.10
2022-08-07T00:29:28.729Z,13.00
2022-08-07T00:33:14.282Z,13.00
2022-08-07T00:36:56.973Z,12.90
2022-08-07T00:40:40.798Z,12.80
2022-08-07T00:44:22.854Z,12.70
2022-08-07T00:48:10.981Z,12.70
2022-08-07T00:51:58.399Z,12.70
2022-08-07T00:56:00.425Z,12.60
2022-08-07T00:59:42.805Z,12.50
2022-08-07T01:03:55.484Z,12.50
2022-08-07T01:07:29.545Z,12.50
2022-08-07T01:12:10.140Z,12.40
2022-08-07T01:15:17.652Z,12.40
2022-08-07T01:18:59.833Z,12.30
2022-08-07T01:22:54.091Z,12.30
2022-08-07T01:26:45.440Z,12.20
2022-08-07T01:30:30.927Z,12.10
2022-08-07T01:34:14.317Z,12.10
2022-08-07T01:37:56.902Z,12.10
2022-08-07T01:42:07.322Z,12.10
2022-08-07T01:45:46.587Z,12.00
2022-08-07T01:49:28.695Z,12.00
2022-08-07T01:53:20.638Z,11.90
2022-08-07T01:57:08.410Z,11.90
2022-08-07T02:00:58.017Z,11.80
2022-08-07T02:05:07.524Z,11.80
2022-08-07T02:08:54.160Z,11.70
2022-08-07T02:12:42.375Z,11.70
2022-08-07T02:16:33.678Z,11.70
2022-08-07T02:20:23.536Z,11.60
2022-08-07T02:24:06.766Z,11.60
2022-08-07T02:27:53.078Z,11.50
2022-08-07T02:31:36.897Z,11.50
2022-08-07T02:35:20.498Z,11.50
2022-08-07T02:39:43.047Z,11.40
2022-08-07T02:43:27.822Z,11.40
2022-08-07T02:47:19.535Z,11.30
2022-08-07T02:51:29.259Z,11.30
2022-08-07T02:55:28.645Z,11.20
2022-08-07T02:59:27.400Z,11.20
2022-08-07T03:03:13.477Z,11.20
2022-08-07T03:06:56.780Z,11.10
2022-08-07T03:10:40.959Z,11.10
2022-08-07T03:14:29.305Z,11.10
2022-08-07T03:18:17.635Z,11.00
2022-08-07T03:22:04.535Z,11.00
2022-08-07T03:25:58.307Z,11.00
2022-08-07T03:29:49.311Z,11.00
2022-08-07T03:33:40.098Z,11.00
2022-08-07T03:37:27.645Z,11.00
2022-08-07T03:41:10.991Z,10.90
2022-08-07T03:44:58.057Z,10.90
2022-08-07T03:48:45.444Z,10.90
2022-08-07T03:52:44.747Z,10.80
2022-08-07T03:56:33.338Z,10.80
2022-08-07T04:00:18.299Z,10.80
2022-08-07T04:04:04.869Z,10.70
2022-08-07T04:07:48.030Z,10.70
2022-08-07T04:12:26.679Z,10.70
2022-08-07T04:15:34.754Z,10.70
2022-08-07T04:19:17.490Z,10.60
2022-08-07T04:23:06.415Z,10.60
2022-08-07T04:26:48.706Z,10.60
2022-08-07T04:30:43.515Z,10.50
2022-08-07T04:34:39.514Z,10.50
2022-08-07T04:38:22.417Z,10.40
2022-08-07T04:42:04.868Z,10.30
2022-08-07T04:46:06.809Z,10.30
2022-08-07T04:50:32.315Z,10.20
2022-08-07T04:54:32.632Z,10.20
2022-08-07T05:03:03.041Z,10.20
2022-08-07T05:07:19.687Z,10.20
2022-08-07T05:15:23.160Z,10.20
2022-08-07T05:19:32.548Z,10.30
2022-08-07T05:24:10.806Z,10.30
2022-08-07T05:32:02.160Z,10.40
2022-08-07T05:40:13.850Z,10.60
2022-08-07T05:44:29.889Z,10.70
2022-08-07T05:48:58.354Z,10.90
2022-08-07T05:54:12.422Z,11.10
2022-08-07T05:57:58.878Z,11.50
2022-08-07T06:02:10.202Z,12.00
2022-08-07T06:05:56.646Z,12.60
2022-08-07T06:10:05.598Z,13.20
2022-08-07T06:14:13.592Z,13.80
2022-08-07T06:17:58.842Z,14.60
2022-08-07T06:22:14.256Z,15.30
2022-08-07T06:25:54.389Z,15.90
2022-08-07T06:29:39.196Z,16.60
2022-08-07T06:33:42.865Z,17.30
2022-08-07T06:37:24.894Z,18.00
2022-08-07T06:42:00.770Z,18.80
2022-08-07T06:49:52.186Z,20.40
2022-08-07T06:55:27.528Z,21.10
2022-08-07T06:58:29.490Z,21.90
2022-08-07T07:02:53.780Z,22.80
2022-08-07T07:06:31.595Z,23.50
2022-08-07T07:19:56.308Z,26.10
2022-08-07T07:24:08.908Z,27.00
2022-08-07T07:28:29.839Z,27.70
2022-08-07T07:32:18.567Z,28.70
2022-08-07T07:36:04.693Z,29.50
2022-08-07T07:40:15.217Z,30.20
2022-08-07T07:44:18.070Z,30.80
2022-08-07T07:48:34.796Z,31.50
2022-08-07T07:52:34.987Z,32.10
2022-08-07T07:56:18.326Z,32.60
2022-08-07T08:00:29.382Z,32.80
2022-08-07T08:04:55.045Z,33.40
2022-08-07T08:08:39.448Z,34.30
2022-08-07T08:12:58.928Z,35.00
2022-08-07T08:17:56.230Z,35.00
2022-08-07T08:22:09.759Z,34.80
2022-08-07T08:26:40.086Z,35.60
2022-08-07T08:34:31.910Z,36.50
2022-08-07T08:38:44.545Z,36.90
2022-08-07T08:43:15.956Z,37.10
2022-08-07T09:00:28.774Z,40.10
2022-08-07T09:04:57.367Z,40.60
2022-08-07T09:09:20.642Z,41.50
2022-08-07T09:13:39.815Z,41.90
2022-08-07T09:18:16.918Z,42.50
2022-08-07T09:24:32.613Z,43.00
2022-08-07T09:27:13.418Z,43.50
2022-08-07T09:39:53.707Z,43.90
2022-08-07T09:53:04.717Z,45.60
2022-08-07T09:57:36.541Z,45.70
2022-08-07T10:02:05.745Z,46.10
2022-08-07T10:28:36.932Z,47.90
2022-08-07T10:32:53.286Z,48.50
2022-08-07T10:37:26.438Z,48.70
2022-08-07T10:41:46.243Z,48.20
2022-08-07T10:46:01.887Z,48.00
2022-08-07T10:50:01.513Z,47.70
2022-08-07T10:54:32.073Z,47.40
2022-08-07T10:59:02.185Z,46.10
2022-08-07T11:16:41.112Z,38.50
2022-08-07T11:20:57.073Z,37.00
2022-08-07T11:30:18.736Z,34.80
2022-08-07T11:34:28.103Z,33.80
2022-08-07T11:38:56.462Z,32.60
2022-08-07T11:48:03.327Z,31.00
2022-08-07T11:56:28.787Z,29.80
2022-08-07T12:06:00.283Z,29.20
2022-08-07T12:10:28.157Z,29.10
2022-08-07T12:14:13.362Z,28.80
2022-08-07T12:18:33.225Z,28.60
2022-08-07T12:27:27.888Z,28.40
2022-08-07T12:32:04.025Z,28.10
2022-08-07T12:40:03.821Z,27.30
2022-08-07T12:48:52.910Z,27.10
2022-08-07T12:57:04.582Z,27.10
2022-08-07T13:01:32.421Z,27.00
2022-08-07T13:10:37.772Z,26.60
2022-08-07T13:14:50.931Z,26.30
2022-08-07T13:19:21.952Z,26.20
2022-08-07T13:32:45.028Z,26.20
2022-08-07T13:41:47.536Z,25.80
2022-08-07T13:46:23.921Z,25.70
2022-08-07T13:51:00.268Z,25.70
2022-08-07T13:54:49.177Z,25.60
2022-08-07T14:08:01.446Z,25.40
2022-08-07T14:12:28.194Z,25.30
2022-08-07T14:20:42.516Z,25.20
2022-08-07T14:24:52.817Z,25.20
2022-08-07T14:29:06.066Z,25.20
2022-08-07T14:55:17.671Z,25.20
2022-08-07T15:46:04.485Z,25.00
2022-08-07T15:58:02.225Z,24.90
2022-08-07T16:06:16.913Z,24.90
2022-08-07T16:19:41.824Z,24.80
2022-08-07T16:37:02.574Z,24.60
2022-08-07T17:00:00.893Z,24.50
2022-08-07T17:17:59.500Z,24.40
2022-08-07T17:22:37.483Z,24.40
2022-08-07T17:36:00.389Z,24.40
2022-08-07T17:45:02.223Z,24.40
2022-08-07T17:54:06.297Z,24.30
2022-08-07T18:30:31.156Z,23.80
2022-08-07T18:35:15.814Z,23.70
2022-08-07T18:43:57.332Z,23.50
2022-08-07T18:48:08.897Z,23.40
2022-08-07T19:16:03.272Z,22.80
2022-08-07T19:38:01.877Z,22.10
2022-08-07T19:46:12.168Z,21.80
2022-08-07T19:54:31.743Z,21.50
2022-08-07T19:58:14.205Z,21.30
2022-08-07T20:02:01.468Z,21.20
2022-08-07T20:06:00.895Z,21.10
2022-08-07T20:10:36.577Z,21.00
2022-08-07T20:13:54.637Z,20.90
2022-08-07T20:17:38.625Z,20.80
2022-08-07T20:21:22.619Z,20.60
2022-08-07T20:25:19.946Z,20.50
2022-08-07T20:29:10.107Z,20.40
2022-08-07T20:32:58.697Z,20.30
2022-08-07T20:36:44.064Z,20.20
2022-08-07T20:40:51.576Z,20.10
2022-08-07T20:44:40.748Z,19.90
2022-08-07T20:48:30.841Z,19.80
2022-08-07T20:52:21.175Z,19.60
2022-08-07T20:56:16.103Z,19.50
2022-08-07T21:00:09.220Z,19.30
2022-08-07T21:04:19.452Z,19.20
2022-08-07T21:08:01.135Z,19.10
2022-08-07T21:11:51.131Z,19.00
2022-08-07T21:15:48.217Z,18.90
2022-08-07T21:19:51.562Z,18.70
2022-08-07T21:24:15.327Z,18.70
2022-08-07T21:28:49.267Z,18.50
2022-08-07T21:32:50.139Z,18.40
2022-08-07T21:36:50.413Z,18.30
2022-08-07T21:40:46.080Z,18.20
2022-08-07T21:46:08.237Z,18.10
2022-08-07T21:49:26.924Z,18.00
2022-08-07T21:53:46.491Z,17.90
2022-08-07T21:58:01.729Z,17.80
2022-08-07T22:02:11.360Z,17.70
2022-08-07T22:06:30.681Z,17.60
2022-08-07T22:10:16.454Z,17.50
2022-08-07T22:14:04.976Z,17.40
2022-08-07T22:17:59.887Z,17.30
2022-08-07T22:22:04.546Z,17.20
2022-08-07T22:25:58.863Z,17.20
2022-08-07T22:29:50.359Z,17.10
2022-08-07T22:33:56.958Z,16.90
2022-08-07T22:38:04.976Z,16.80
2022-08-07T22:42:02.999Z,16.70
2022-08-07T22:46:47.051Z,16.60
2022-08-07T22:51:07.782Z,16.50
2022-08-07T22:55:17.098Z,16.40
2022-08-07T22:59:43.560Z,16.30
2022-08-07T23:03:58.548Z,16.20
2022-08-07T23:08:00.645Z,16.10
2022-08-07T23:11:59.389Z,16.00
2022-08-07T23:16:44.748Z,15.80
2022-08-07T23:20:51.762Z,15.70
2022-08-07T23:24:48.031Z,15.60
2022-08-07T23:29:01.978Z,15.50
2022-08-07T23:34:23.579Z,15.40
2022-08-07T23:37:20.166Z,15.30
2022-08-07T23:41:13.675Z,15.20
2022-08-07T23:45:33.437Z,15.20
2022-08-07T23:49:50.690Z,15.10
2022-08-07T23:53:58.826Z,15.00
2022-08-07T23:57:56.412Z,14.90
